Map

Track Data

SID SEASON NUMBER BASIN SUBBASIN NAME ISO_TIME NATURE LAT LON WMO_WIND WMO_PRES WMO_AGENCY TRACK_TYPE DIST2LAND LANDFALL IFLAG USA_AGENCY USA_ATCF_ID USA_LAT USA_LON USA_RECORD USA_STATUS USA_WIND USA_PRES USA_SSHS USA_R34_NE USA_R34_SE USA_R34_SW USA_R34_NW USA_R50_NE USA_R50_SE USA_R50_SW USA_R50_NW USA_R64_NE USA_R64_SE USA_R64_SW USA_R64_NW USA_POCI USA_ROCI USA_RMW USA_EYE TOKYO_LAT TOKYO_LON TOKYO_GRADE TOKYO_WIND TOKYO_PRES TOKYO_R50_DIR TOKYO_R50_LONG TOKYO_R50_SHORT TOKYO_R30_DIR TOKYO_R30_LONG TOKYO_R30_SHORT TOKYO_LAND CMA_LAT CMA_LON CMA_CAT CMA_WIND CMA_PRES HKO_LAT HKO_LON HKO_CAT HKO_WIND HKO_PRES NEWDELHI_LAT NEWDELHI_LON NEWDELHI_GRADE NEWDELHI_WIND NEWDELHI_PRES NEWDELHI_CI NEWDELHI_DP NEWDELHI_POCI REUNION_LAT REUNION_LON REUNION_TYPE REUNION_WIND REUNION_PRES REUNION_TNUM REUNION_CI REUNION_RMW REUNION_R34_NE REUNION_R34_SE REUNION_R34_SW REUNION_R34_NW REUNION_R50_NE REUNION_R50_SE REUNION_R50_SW REUNION_R50_NW REUNION_R64_NE REUNION_R64_SE REUNION_R64_SW REUNION_R64_NW BOM_LAT BOM_LON BOM_TYPE BOM_WIND BOM_PRES BOM_TNUM BOM_CI BOM_RMW BOM_R34_NE BOM_R34_SE BOM_R34_SW BOM_R34_NW BOM_R50_NE BOM_R50_SE BOM_R50_SW BOM_R50_NW BOM_R64_NE BOM_R64_SE BOM_R64_SW BOM_R64_NW BOM_ROCI BOM_POCI BOM_EYE BOM_POS_METHOD BOM_PRES_METHOD NADI_LAT NADI_LON NADI_CAT NADI_WIND NADI_PRES WELLINGTON_LAT WELLINGTON_LON WELLINGTON_WIND WELLINGTON_PRES DS824_LAT DS824_LON DS824_STAGE DS824_WIND DS824_PRES TD9636_LAT TD9636_LON TD9636_STAGE TD9636_WIND TD9636_PRES TD9635_LAT TD9635_LON TD9635_WIND TD9635_PRES TD9635_ROCI NEUMANN_LAT NEUMANN_LON NEUMANN_CLASS NEUMANN_WIND NEUMANN_PRES MLC_LAT MLC_LON MLC_CLASS MLC_WIND MLC_PRES USA_GUST BOM_GUST BOM_GUST_PER REUNION_GUST REUNION_GUST_PER USA_SEAHGT USA_SEARAD_NE USA_SEARAD_SE USA_SEARAD_SW USA_SEARAD_NW STORM_SPEED STORM_DIR
1970267N09345 1970 120 NA NA NOT_NAMED 1970-09-23 12:00:00 TS 9.00000 -15.0000 20 hurdat_atl main 145 145 O_____________ hurdat_atl AL151970 9.00000 -15.0000 TD 20 -1 15 270
1970267N09345 1970 120 NA NA NOT_NAMED 1970-09-23 15:00:00 TS 9.00030 -15.7500 main 196 196 P_____________ AL151970 9.00030 -15.7500 TD 20 -1 15 270
1970267N09345 1970 120 NA NA NOT_NAMED 1970-09-23 18:00:00 TS 9.00000 -16.5000 20 hurdat_atl main 257 257 O_____________ hurdat_atl AL151970 9.00000 -16.5000 TD 20 -1 15 270
1970267N09345 1970 120 NA NA NOT_NAMED 1970-09-23 21:00:00 TS 8.99985 -17.2500 main 313 313 P_____________ AL151970 8.99985 -17.2500 TD 22 -1 15 270
1970267N09345 1970 120 NA NA NOT_NAMED 1970-09-24 00:00:00 TS 9.00000 -18.0000 25 hurdat_atl main 373 373 O_____________ hurdat_atl AL151970 9.00000 -18.0000 TD 25 -1 15 270
1970267N09345 1970 120 NA NA NOT_NAMED 1970-09-24 03:00:00 TS 8.99985 -18.7500 main 422 422 P_____________ AL151970 8.99985 -18.7500 TD 25 -1 15 270
1970267N09345 1970 120 NA NA NOT_NAMED 1970-09-24 06:00:00 TS 9.00000 -19.5000 25 hurdat_atl main 481 481 O_____________ hurdat_atl AL151970 9.00000 -19.5000 TD 25 -1 15 269
1970267N09345 1970 120 NA NA NOT_NAMED 1970-09-24 09:00:00 TS 8.98470 -20.2276 main 532 532 P_____________ AL151970 8.98470 -20.2276 TD 25 -1 15 270
1970267N09345 1970 120 NA NA NOT_NAMED 1970-09-24 12:00:00 TS 9.00000 -21.0000 25 hurdat_atl main 596 596 O_____________ hurdat_atl AL151970 9.00000 -21.0000 TD 25 -1 16 273
1970267N09345 1970 120 NA NA NOT_NAMED 1970-09-24 15:00:00 TS 9.07749 -21.8850 main 668 668 P_____________ AL151970 9.07749 -21.8850 TD 25 -1 18 276
1970267N09345 1970 120 NA NA NOT_NAMED 1970-09-24 18:00:00 TS 9.20000 -22.8000 25 hurdat_atl main 747 747 O_____________ hurdat_atl AL151970 9.20000 -22.8000 TD 25 -1 18 279
1970267N09345 1970 120 NA NA NOT_NAMED 1970-09-24 21:00:00 TS 9.34224 -23.6575 main 830 825 P_____________ AL151970 9.34224 -23.6575 TD 27 -1 17 280
1970267N09345 1970 120 NA NA NOT_NAMED 1970-09-25 00:00:00 TS 9.50000 -24.5000 30 hurdat_atl main 901 901 O_____________ hurdat_atl AL151970 9.50000 -24.5000 TD 30 -1 17 281
1970267N09345 1970 120 NA NA NOT_NAMED 1970-09-25 03:00:00 TS 9.65724 -25.3425 main 976 976 P_____________ AL151970 9.65724 -25.3425 TD 30 -1 17 280
1970267N09345 1970 120 NA NA NOT_NAMED 1970-09-25 06:00:00 TS 9.80000 -26.2000 30 hurdat_atl main 1066 1066 O_____________ hurdat_atl AL151970 9.80000 -26.2000 TD 30 -1 18 278
1970267N09345 1970 120 NA NA NOT_NAMED 1970-09-25 09:00:00 TS 9.90749 -27.1151 main 1158 1158 P_____________ AL151970 9.90749 -27.1151 TD 30 -1 18 276
1970267N09345 1970 120 NA NA NOT_NAMED 1970-09-25 12:00:00 TS 10.0000 -28.0000 30 hurdat_atl main 1251 1251 O_____________ hurdat_atl AL151970 10.0000 -28.0000 TD 30 -1 16 276
1970267N09345 1970 120 NA NA NOT_NAMED 1970-09-25 15:00:00 TS 10.0922 -28.7726 main 1331 1331 P_____________ AL151970 10.0922 -28.7726 TD 30 -1 15 278
1970267N09345 1970 120 NA NA NOT_NAMED 1970-09-25 18:00:00 TS 10.2000 -29.5000 30 hurdat_atl main 1397 1397 O_____________ hurdat_atl AL151970 10.2000 -29.5000 TD 30 -1 15 280
1970267N09345 1970 120 NA NA NOT_NAMED 1970-09-25 21:00:00 TS 10.3423 -30.2500 main 1474 1470 P_____________ AL151970 10.3423 -30.2500 TD 30 -1 15 281
1970267N09345 1970 120 NA NA NOT_NAMED 1970-09-26 00:00:00 TS 10.5000 -31.0000 30 hurdat_atl main 1538 1538 O_____________ hurdat_atl AL151970 10.5000 -31.0000 TD 30 -1 15 282
1970267N09345 1970 120 NA NA NOT_NAMED 1970-09-26 03:00:00 TS 10.6573 -31.7500 main 1614 1614 P_____________ AL151970 10.6573 -31.7500 TD 30 -1 15 282
1970267N09345 1970 120 NA NA NOT_NAMED 1970-09-26 06:00:00 TS 10.8000 -32.5000 30 hurdat_atl main 1684 1684 O_____________ hurdat_atl AL151970 10.8000 -32.5000 TD 30 -1 15 280
1970267N09345 1970 120 NA NA NOT_NAMED 1970-09-26 09:00:00 TS 10.9221 -33.2275 main 1710 1684 P_____________ AL151970 10.9221 -33.2275 TD 30 -1 15 278
1970267N09345 1970 120 NA NA NOT_NAMED 1970-09-26 12:00:00 TS 11.0000 -34.0000 30 hurdat_atl main 1684 1652 O_____________ hurdat_atl AL151970 11.0000 -34.0000 TD 30 -1 16 273
1970267N09345 1970 120 NA NA NOT_NAMED 1970-09-26 15:00:00 TS 11.0150 -34.8851 main 1649 1619 P_____________ AL151970 11.0150 -34.8851 TD 30 -1 18 270
1970267N09345 1970 120 NA NA NOT_NAMED 1970-09-26 18:00:00 TS 11.0000 -35.8000 30 hurdat_atl main 1619 1597 O_____________ hurdat_atl AL151970 11.0000 -35.8000 TD 30 -1 17 269
1970267N09345 1970 120 NA NA NOT_NAMED 1970-09-26 21:00:00 TS 10.9997 -36.6575 main 1594 1578 P_____________ AL151970 10.9997 -36.6575 TD 30 -1 17 270
1970267N09345 1970 120 NA NA NOT_NAMED 1970-09-27 00:00:00 TS 11.0000 -37.5000 30 hurdat_atl main 1578 1566 O_____________ hurdat_atl AL151970 11.0000 -37.5000 TD 30 -1 17 270
1970267N09345 1970 120 NA NA NOT_NAMED 1970-09-27 03:00:00 TS 10.9997 -38.3425 main 1566 1530 P_____________ AL151970 10.9997 -38.3425 TD 30 -1 17 270
1970267N09345 1970 120 NA NA NOT_NAMED 1970-09-27 06:00:00 TS 11.0000 -39.2000 30 hurdat_atl main 1530 1454 O_____________ hurdat_atl AL151970 11.0000 -39.2000 TD 30 -1 17 270
1970267N09345 1970 120 NA NA NOT_NAMED 1970-09-27 09:00:00 TS 10.9923 -40.0926 main 1444 1370 P_____________ AL151970 10.9923 -40.0926 TD 30 -1 18 270
1970267N09345 1970 120 NA NA NOT_NAMED 1970-09-27 12:00:00 TS 11.0000 -41.0000 30 hurdat_atl main 1361 1288 O_____________ hurdat_atl AL151970 11.0000 -41.0000 TD 30 -1 18 272
1970267N09345 1970 120 NA NA NOT_NAMED 1970-09-27 15:00:00 TS 11.0422 -41.8925 main 1279 1216 P_____________ AL151970 11.0422 -41.8925 TD 30 -1 18 273
1970267N09345 1970 120 NA NA NOT_NAMED 1970-09-27 18:00:00 TS 11.1000 -42.8000 30 hurdat_atl main 1207 1132 O_____________ hurdat_atl AL151970 11.1000 -42.8000 TD 30 -1 18 273
1970267N09345 1970 120 NA NA NOT_NAMED 1970-09-27 21:00:00 TS 11.1498 -43.7425 main 1132 1069 P_____________ AL151970 11.1498 -43.7425 TD 30 -1 19 273
1970267N09345 1970 120 NA NA NOT_NAMED 1970-09-28 00:00:00 TS 11.2000 -44.7000 30 hurdat_atl main 1061 996 O_____________ hurdat_atl AL151970 11.2000 -44.7000 TD 30 -1 19 273
1970267N09345 1970 120 NA NA NOT_NAMED 1970-09-28 03:00:00 TS 11.2422 -45.6501 main 989 945 P_____________ AL151970 11.2422 -45.6501 TD 30 -1 19 273
1970267N09345 1970 120 NA NA NOT_NAMED 1970-09-28 06:00:00 TS 11.3000 -46.6000 30 hurdat_atl main 939 893 O_____________ hurdat_atl AL151970 11.3000 -46.6000 TD 30 -1 19 274
1970267N09345 1970 120 NA NA NOT_NAMED 1970-09-28 09:00:00 TS 11.3849 -47.5725 main 886 837 P_____________ AL151970 11.3849 -47.5725 TD 30 -1 19 276
1970267N09345 1970 120 NA NA NOT_NAMED 1970-09-28 12:00:00 TS 11.5000 -48.5000 30 hurdat_atl main 837 803 O_____________ hurdat_atl AL151970 11.5000 -48.5000 TD 30 -1 17 278
1970267N09345 1970 120 NA NA NOT_NAMED 1970-09-28 15:00:00 TS 11.6346 -49.3226 main 803 786 P_____________ AL151970 11.6346 -49.3226 TD 30 -1 16 281
1970267N09345 1970 120 NA NA NOT_NAMED 1970-09-28 18:00:00 TS 11.8000 -50.1000 30 hurdat_atl main 786 773 O_____________ hurdat_atl AL151970 11.8000 -50.1000 TD 30 -1 16 283
1970267N09345 1970 120 NA NA NOT_NAMED 1970-09-28 21:00:00 TS 11.9922 -50.8926 main 773 755 P_____________ AL151970 11.9922 -50.8926 TD 30 -1 16 284
1970267N09345 1970 120 NA NA NOT_NAMED 1970-09-29 00:00:00 TS 12.2000 -51.7000 30 hurdat_atl main 757 746 O_____________ hurdat_atl AL151970 12.2000 -51.7000 TD 30 -1 17 284
1970267N09345 1970 120 NA NA NOT_NAMED 1970-09-29 03:00:00 TS 12.3999 -52.5501 main 749 746 P_____________ AL151970 12.3999 -52.5501 TD 30 -1 17 284
1970267N09345 1970 120 NA NA NOT_NAMED 1970-09-29 06:00:00 TS 12.6000 -53.4000 30 hurdat_atl main 755 751 O_____________ hurdat_atl AL151970 12.6000 -53.4000 TD 30 -1 17 284
1970267N09345 1970 120 NA NA NOT_NAMED 1970-09-29 09:00:00 TS 12.8226 -54.2673 main 743 702 P_____________ AL151970 12.8226 -54.2673 TD 30 -1 16 284
1970267N09345 1970 120 NA NA NOT_NAMED 1970-09-29 12:00:00 TS 13.0000 -55.0000 30 hurdat_atl main 702 666 O_____________ hurdat_atl AL151970 13.0000 -55.0000 TD 30 -1 12 282
1970267N09345 1970 120 NA NA NOT_NAMED 1970-09-29 15:00:00 TS 13.0720 -55.4527 main 656 626 P_____________ AL151970 13.0720 -55.4527 TD 30 -1 8 277
1970267N09345 1970 120 NA NA NOT_NAMED 1970-09-29 18:00:00 TS 13.1000 -55.8000 30 hurdat_atl main 626 587 O_____________ hurdat_atl AL151970 13.1000 -55.8000 TD 30 -1 8 276
1970267N09345 1970 120 NA NA NOT_NAMED 1970-09-29 21:00:00 TS 13.1500 -56.2425 main 587 545 P_____________ AL151970 13.1500 -56.2425 TD 30 -1 9 277
1970267N09345 1970 120 NA NA NOT_NAMED 1970-09-30 00:00:00 TS 13.2000 -56.7000 30 hurdat_atl main 545 508 O_____________ hurdat_atl AL151970 13.2000 -56.7000 TD 30 -1 9 276
1970267N09345 1970 120 NA NA NOT_NAMED 1970-09-30 03:00:00 TS 13.2424 -57.1501 main 499 470 P_____________ AL151970 13.2424 -57.1501 TD 30 -1 9 277
1970267N09345 1970 120 NA NA NOT_NAMED 1970-09-30 06:00:00 TS 13.3000 -57.6000 30 hurdat_atl main 470 444 O_____________ hurdat_atl AL151970 13.3000 -57.6000 TD 30 -1 9 280
1970267N09345 1970 120 NA NA NOT_NAMED 1970-09-30 09:00:00 TS 13.4000 -58.0724 main 437 415 P_____________ AL151970 13.4000 -58.0724 TD 30 -1 9 283
1970267N09345 1970 120 NA NA NOT_NAMED 1970-09-30 12:00:00 TS 13.5000 -58.5000 30 hurdat_atl main 415 394 O_____________ hurdat_atl AL151970 13.5000 -58.5000 TD 30 -1 7 282
1970267N09345 1970 120 NA NA NOT_NAMED 1970-09-30 15:00:00 TS 13.5574 -58.8226 main 403 384 P_____________ AL151970 13.5574 -58.8226 TD 30 -1 6 280
1970267N09345 1970 120 NA NA NOT_NAMED 1970-09-30 18:00:00 TS 13.6000 -59.1000 30 hurdat_atl main 384 368 O_____________ hurdat_atl AL151970 13.6000 -59.1000 TD 30 -1 6 279
1970267N09345 1970 120 NA CS NOT_NAMED 1970-09-30 21:00:00 TS 13.6500 -59.4075 main 368 364 P_____________ AL151970 13.6500 -59.4075 TD 30 -1 6 280
1970267N09345 1970 120 NA CS NOT_NAMED 1970-10-01 00:00:00 TS 13.7000 -59.7000 30 hurdat_atl main 364 356 O_____________ hurdat_atl AL151970 13.7000 -59.7000 TD 30 -1 5 280
1970267N09345 1970 120 NA CS NOT_NAMED 1970-10-01 03:00:00 TS 13.7424 -59.9351 main 356 353 P_____________ AL151970 13.7424 -59.9351 TD 30 -1 5 282
1970267N09345 1970 120 NA CS NOT_NAMED 1970-10-01 06:00:00 TS 13.8000 -60.2000 30 hurdat_atl main 357 353 O_____________ hurdat_atl AL151970 13.8000 -60.2000 TD 30 -1 7 285
1970267N09345 1970 120 NA CS NOT_NAMED 1970-10-01 09:00:00 TS 13.9076 -60.5924 main 360 359 P_____________ AL151970 13.9076 -60.5924 TD 30 -1 8 284
1970267N09345 1970 120 NA CS NOT_NAMED 1970-10-01 12:00:00 TS 14.0000 -61.0000 30 hurdat_atl main 369 369 O_____________ hurdat_atl AL151970 14.0000 -61.0000 TD 30 -1 7 279
1970267N09345 1970 120 NA CS NOT_NAMED 1970-10-01 15:00:00 TS 14.0149 -61.3151 main 369 369 P_____________ AL151970 14.0149 -61.3151 TD 30 -1 6 270
1970267N09345 1970 120 NA CS NOT_NAMED 1970-10-01 18:00:00 TS 14.0000 -61.6000 30 hurdat_atl main 369 369 O_____________ hurdat_atl AL151970 14.0000 -61.6000 TD 30 -1 6 268
1970267N09345 1970 120 NA CS NOT_NAMED 1970-10-01 21:00:00 TS 14.0000 -61.9000 main 370 369 P_____________ AL151970 14.0000 -61.9000 TD 30 -1 6 270
1970267N09345 1970 120 NA CS NOT_NAMED 1970-10-02 00:00:00 TS 14.0000 -62.2000 30 hurdat_atl main 369 369 O_____________ hurdat_atl AL151970 14.0000 -62.2000 TD 30 -1 6 270
1970267N09345 1970 120 NA CS NOT_NAMED 1970-10-02 03:00:00 TS 13.9999 -62.4925 main 369 369 P_____________ AL151970 13.9999 -62.4925 TD 30 -1 6 270
1970267N09345 1970 120 NA CS NOT_NAMED 1970-10-02 06:00:00 TS 14.0000 -62.8000 30 hurdat_atl main 369 369 O_____________ hurdat_atl AL151970 14.0000 -62.8000 TD 30 -1 6 270
1970267N09345 1970 120 NA CS NOT_NAMED 1970-10-02 09:00:00 TS 14.0000 -63.1425 main 369 369 P_____________ AL151970 14.0000 -63.1425 TD 30 -1 7 270
1970267N09345 1970 120 NA CS NOT_NAMED 1970-10-02 12:00:00 TS 14.0000 -63.5000 30 hurdat_atl main 372 372 O_____________ hurdat_atl AL151970 14.0000 -63.5000 TD 30 -1 7 270
1970267N09345 1970 120 NA CS NOT_NAMED 1970-10-02 15:00:00 TS 13.9999 -63.8425 main 377 377 P_____________ AL151970 13.9999 -63.8425 TD 30 -1 7 270
1970267N09345 1970 120 NA CS NOT_NAMED 1970-10-02 18:00:00 TS 14.0000 -64.2000 30 hurdat_atl main 380 380 O_____________ hurdat_atl AL151970 14.0000 -64.2000 TD 30 -1 7 270
1970267N09345 1970 120 NA CS NOT_NAMED 1970-10-02 21:00:00 TS 14.0000 -64.5925 main 383 383 P_____________ AL151970 14.0000 -64.5925 TD 30 -1 8 270
1970267N09345 1970 120 NA CS NOT_NAMED 1970-10-03 00:00:00 TS 14.0000 -65.0000 30 hurdat_atl main 390 386 O_____________ hurdat_atl AL151970 14.0000 -65.0000 TD 30 -1 8 270
1970267N09345 1970 120 NA CS NOT_NAMED 1970-10-03 03:00:00 TS 14.0000 -65.4075 main 386 381 P_____________ AL151970 14.0000 -65.4075 TD 30 -1 8 270
1970267N09345 1970 120 NA CS NOT_NAMED 1970-10-03 06:00:00 TS 14.0000 -65.8000 30 hurdat_atl main 381 380 O_____________ hurdat_atl AL151970 14.0000 -65.8000 TD 30 -1 7 269
1970267N09345 1970 120 NA CS NOT_NAMED 1970-10-03 09:00:00 TS 13.9924 -66.1650 main 380 375 P_____________ AL151970 13.9924 -66.1650 TD 30 -1 7 270
1970267N09345 1970 120 NA CS NOT_NAMED 1970-10-03 12:00:00 TS 14.0000 -66.5000 30 hurdat_atl main 375 358 O_____________ hurdat_atl AL151970 14.0000 -66.5000 TD 30 -1 6 275
1970267N09345 1970 120 NA CS NOT_NAMED 1970-10-03 15:00:00 TS 14.0424 -66.8075 main 358 353 P_____________ AL151970 14.0424 -66.8075 TD 30 -1 6 280
1970267N09345 1970 120 NA CS NOT_NAMED 1970-10-03 18:00:00 TS 14.1000 -67.1000 30 hurdat_atl main 353 338 O_____________ hurdat_atl AL151970 14.1000 -67.1000 TD 30 -1 6 280
1970267N09345 1970 120 NA CS NOT_NAMED 1970-10-03 21:00:00 TS 14.1500 -67.4075 main 348 334 P_____________ AL151970 14.1500 -67.4075 TD 30 -1 6 280
1970267N09345 1970 120 NA CS NOT_NAMED 1970-10-04 00:00:00 TS 14.2000 -67.7000 30 hurdat_atl main 334 319 O_____________ hurdat_atl AL151970 14.2000 -67.7000 TD 30 -1 5 280
1970267N09345 1970 120 NA CS NOT_NAMED 1970-10-04 03:00:00 TS 14.2424 -67.9351 main 319 307 P_____________ AL151970 14.2424 -67.9351 TD 30 -1 5 282
1970267N09345 1970 120 NA CS NOT_NAMED 1970-10-04 06:00:00 TS 14.3000 -68.2000 30 hurdat_atl main 307 293 O_____________ hurdat_atl AL151970 14.3000 -68.2000 TD 30 -1 7 283
1970267N09345 1970 120 NA CS NOT_NAMED 1970-10-04 09:00:00 TS 14.4002 -68.6374 main 293 283 P_____________ AL151970 14.4002 -68.6374 TD 30 -1 8 284
1970267N09345 1970 120 NA CS NOT_NAMED 1970-10-04 12:00:00 TS 14.5000 -69.0000 30 hurdat_atl main 285 282 O_____________ hurdat_atl AL151970 14.5000 -69.0000 TD 30 -1 4 291
1970267N09345 1970 120 NA CS NOT_NAMED 1970-10-04 15:00:00 TS 14.5574 -69.0601 main 293 293 P_____________ AL151970 14.5574 -69.0601 TD 30 -1 1 0
1970267N09345 1970 120 NA CS NOT_NAMED 1970-10-04 18:00:00 TS 14.6000 -69.0000 30 hurdat_atl main 296 296 O_____________ hurdat_atl AL151970 14.6000 -69.0000 TD 30 -1 1 28
1970267N09345 1970 120 NA CS NOT_NAMED 1970-10-04 21:00:00 TS 14.6500 -69.0000 main 306 306 P_____________ AL151970 14.6500 -69.0000 TD 30 -1 1 0
1970267N09345 1970 120 NA CS NOT_NAMED 1970-10-05 00:00:00 TS 14.7000 -69.0000 30 hurdat_atl main 306 306 O_____________ hurdat_atl AL151970 14.7000 -69.0000 TD 30 -1 1 34
1970267N09345 1970 120 NA CS NOT_NAMED 1970-10-05 03:00:00 TS 14.7423 -68.9251 main 310 310 P_____________ AL151970 14.7423 -68.9251 TD 30 -1 1 0
1970267N09345 1970 120 NA CS NOT_NAMED 1970-10-05 06:00:00 TS 14.8000 -69.0000 30 hurdat_atl main 317 309 O_____________ hurdat_atl AL151970 14.8000 -69.0000 TD 30 -1 6 285
1970267N09345 1970 120 NA CS NOT_NAMED 1970-10-05 09:00:00 TS 14.8855 -69.4849 main 316 313 P_____________ AL151970 14.8855 -69.4849 TD 30 -1 10 282
1970267N09345 1970 120 NA CS NOT_NAMED 1970-10-05 12:00:00 TS 15.0000 -70.0000 30 hurdat_atl main 324 307 O_____________ hurdat_atl AL151970 15.0000 -70.0000 TD 30 -1 7 291
1970267N09345 1970 120 NA CS NOT_NAMED 1970-10-05 15:00:00 TS 15.1348 -70.1676 main 307 287 P_____________ AL151970 15.1348 -70.1676 TD 30 -1 4 327
1970267N09345 1970 120 NA CS NOT_NAMED 1970-10-05 18:00:00 TS 15.3000 -70.2000 30 hurdat_atl main 287 262 O_____________ hurdat_atl AL151970 15.3000 -70.2000 TD 30 -1 4 346
1970267N09345 1970 120 NA CS NOT_NAMED 1970-10-05 21:00:00 TS 15.4925 -70.2575 main 262 242 P_____________ AL151970 15.4925 -70.2575 TD 30 -1 4 347
1970267N09345 1970 120 NA CS NOT_NAMED 1970-10-06 00:00:00 TS 15.7000 -70.3000 30 hurdat_atl main 242 223 O_____________ hurdat_atl AL151970 15.7000 -70.3000 TD 30 -1 4 348
1970267N09345 1970 120 NA CS NOT_NAMED 1970-10-06 03:00:00 TS 15.9000 -70.3500 main 218 198 P_____________ AL151970 15.9000 -70.3500 TD 30 -1 4 347
1970267N09345 1970 120 NA CS NOT_NAMED 1970-10-06 06:00:00 TS 16.1000 -70.4000 30 hurdat_atl main 198 174 O_____________ hurdat_atl AL151970 16.1000 -70.4000 TD 30 -1 4 346
1970267N09345 1970 120 NA CS NOT_NAMED 1970-10-06 09:00:00 TS 16.3225 -70.4575 main 174 155 P_____________ AL151970 16.3225 -70.4575 TD 30 -1 4 347
1970267N09345 1970 120 NA CS NOT_NAMED 1970-10-06 12:00:00 TS 16.5000 -70.5000 30 hurdat_atl main 155 147 O_____________ hurdat_atl AL151970 16.5000 -70.5000 TD 30 -1 3 351
1970267N09345 1970 120 NA CS NOT_NAMED 1970-10-06 15:00:00 TS 16.5725 -70.5075 main 147 147 P_____________ AL151970 16.5725 -70.5075 TD 30 -1 1 0
1970267N09345 1970 120 NA CS NOT_NAMED 1970-10-06 18:00:00 TS 16.6000 -70.5000 30 hurdat_atl main 147 147 O_____________ hurdat_atl AL151970 16.6000 -70.5000 TD 30 -1 1 12
1970267N09345 1970 120 NA CS NOT_NAMED 1970-10-06 21:00:00 TS 16.6500 -70.5000 main 138 138 P_____________ AL151970 16.6500 -70.5000 TD 30 -1 1 0
1970267N09345 1970 120 NA CS NOT_NAMED 1970-10-07 00:00:00 TS 16.7000 -70.5000 30 hurdat_atl main 138 138 O_____________ hurdat_atl AL151970 16.7000 -70.5000 TD 30 -1 1 0
1970267N09345 1970 120 NA CS NOT_NAMED 1970-10-07 03:00:00 TS 16.7425 -70.5000 main 138 130 P_____________ AL151970 16.7425 -70.5000 TD 30 -1 1 0
1970267N09345 1970 120 NA CS NOT_NAMED 1970-10-07 06:00:00 TS 16.8000 -70.5000 30 hurdat_atl main 130 123 O_____________ hurdat_atl AL151970 16.8000 -70.5000 TD 30 -1 1 0
1970267N09345 1970 120 NA CS NOT_NAMED 1970-10-07 09:00:00 TS 16.8625 -70.5075 main 123 116 P_____________ AL151970 16.8625 -70.5075 TD 30 -1 2 8
1970267N09345 1970 120 NA CS NOT_NAMED 1970-10-07 12:00:00 TS 17.0000 -70.5000 30 hurdat_atl main 116 100 O_____________ hurdat_atl AL151970 17.0000 -70.5000 TD 30 -1 4 5
1970267N09345 1970 120 NA CS NOT_NAMED 1970-10-07 15:00:00 TS 17.2700 -70.4575 main 100 67 P_____________ AL151970 17.2700 -70.4575 TD 30 -1 6 9
1970267N09345 1970 120 NA CS NOT_NAMED 1970-10-07 18:00:00 TS 17.6000 -70.4000 30 hurdat_atl main 67 33 O_____________ hurdat_atl AL151970 17.6000 -70.4000 TD 30 -1 6 10
1970267N09345 1970 120 NA CS NOT_NAMED 1970-10-07 21:00:00 TS 17.9000 -70.3500 main 33 0 P_____________ AL151970 17.9000 -70.3500 TD 27 -1 6 9
1970267N09345 1970 120 NA CS NOT_NAMED 1970-10-08 00:00:00 TS 18.2000 -70.3000 25 hurdat_atl main 0 0 O_____________ hurdat_atl AL151970 18.2000 -70.3000 TD 25 -1 6 8
1970267N09345 1970 120 NA NA NOT_NAMED 1970-10-08 03:00:00 TS 18.4925 -70.2574 main 0 0 P_____________ AL151970 18.4925 -70.2574 TD 25 -1 6 9
1970267N09345 1970 120 NA NA NOT_NAMED 1970-10-08 06:00:00 TS 18.8000 -70.2000 25 hurdat_atl main 0 0 O_____________ hurdat_atl AL151970 18.8000 -70.2000 TD 25 -1 7 11
1970267N09345 1970 120 NA NA NOT_NAMED 1970-10-08 09:00:00 TS 19.1274 -70.1298 main 0 0 P_____________ AL151970 19.1274 -70.1298 TD 25 -1 7 15
1970267N09345 1970 120 NA NA NOT_NAMED 1970-10-08 12:00:00 TS 19.5000 -70.0000 25 hurdat_atl main 0 0 O_____________ hurdat_atl AL151970 19.5000 -70.0000 TD 25 -1 9 23
1970267N09345 1970 120 NA NA NOT_NAMED 1970-10-08 15:00:00 TS 19.9350 -69.7726 main 39 39 P_____________ AL151970 19.9350 -69.7726 TD 25 -1 10 28
1970267N09345 1970 120 NA NA NOT_NAMED 1970-10-08 18:00:00 TS 20.4000 -69.5000 25 hurdat_atl main 103 103 O_____________ hurdat_atl AL151970 20.4000 -69.5000 TD 25 -1 10 28
1970267N09345 1970 120 NA NA NOT_NAMED 1970-10-08 21:00:00 TS 20.8575 -69.2499 main 167 167 P_____________ AL151970 20.8575 -69.2499 TD 25 -1 10 27
1970267N09345 1970 120 NA NA NOT_NAMED 1970-10-09 00:00:00 TS 21.3000 -69.0000 25 hurdat_atl main 216 216 O_____________ hurdat_atl AL151970 21.3000 -69.0000 TD 25 -1 10 29
1970267N09345 1970 120 NA NA NOT_NAMED 1970-10-09 03:00:00 TS 21.7000 -68.7498 main 271 271 P_____________ AL151970 21.7000 -68.7498 TD 25 -1 9 30
1970267N09345 1970 120 NA NA NOT_NAMED 1970-10-09 06:00:00 TS 22.1000 -68.5000 25 hurdat_atl main 320 320 O_____________ hurdat_atl AL151970 22.1000 -68.5000 TD 25 -1 10 24
1970267N09345 1970 120 NA NA NOT_NAMED 1970-10-09 09:00:00 TS 22.5643 -68.3318 main 378 378 P_____________ AL151970 22.5643 -68.3318 TD 25 -1 10 27
1970267N09345 1970 120 NA NA NOT_NAMED 1970-10-09 12:00:00 TS 23.0000 -68.0000 25 hurdat_atl main 432 432 O_____________ hurdat_atl AL151970 23.0000 -68.0000 TD 25 -1 12 52
1970267N09345 1970 120 NA NA NOT_NAMED 1970-10-09 15:00:00 TS 23.3230 -67.2824 main 492 492 P_____________ AL151970 23.3230 -67.2824 TD 25 -1 16 68
1970267N09345 1970 120 NA NA NOT_NAMED 1970-10-09 18:00:00 TS 23.6000 -66.4000 25 hurdat_atl main 566 566 O_____________ hurdat_atl AL151970 23.6000 -66.4000 TD 25 -1 16 69
1970267N09345 1970 120 NA NA NOT_NAMED 1970-10-09 21:00:00 TS 23.8996 -65.5996 main 615 615 P_____________ AL151970 23.8996 -65.5996 TD 25 -1 16 68
1970267N09345 1970 120 NA NA NOT_NAMED 1970-10-10 00:00:00 TS 24.2000 -64.8000 25 hurdat_atl main 653 653 O_____________ hurdat_atl AL151970 24.2000 -64.8000 TD 25 -1 16 68
1970267N09345 1970 120 NA NA NOT_NAMED 1970-10-10 03:00:00 TS 24.4920 -64.0069 main 701 701 P_____________ AL151970 24.4920 -64.0069 TD 25 -1 16 68
1970267N09345 1970 120 NA NA NOT_NAMED 1970-10-10 06:00:00 TS 24.8000 -63.2000 25 hurdat_atl main 757 757 O_____________ hurdat_atl AL151970 24.8000 -63.2000 TD 25 -1 17 65
1970267N09345 1970 120 NA NA NOT_NAMED 1970-10-10 09:00:00 TS 25.1798 -62.3506 main 828 828 P_____________ AL151970 25.1798 -62.3506 TD 25 -1 17 66
1970267N09345 1970 120 NA NA NOT_NAMED 1970-10-10 12:00:00 TS 25.5000 -61.5000 25 hurdat_atl main 899 899 O_____________ hurdat_atl AL151970 25.5000 -61.5000 TD 25 -1 15 73
1970267N09345 1970 120 NA NA NOT_NAMED 1970-10-10 15:00:00 TS 25.6290 -60.7138 main 950 950 P_____________ AL151970 25.6290 -60.7138 TD 22 -1 15 82
1970267N09345 1970 120 NA NA NOT_NAMED 1970-10-10 18:00:00 TS 25.7000 -59.9000 20 hurdat_atl main 1005 1005 O_____________ hurdat_atl AL151970 25.7000 -59.9000 TD 20 -1 16 82
1970267N09345 1970 120 NA NA NOT_NAMED 1970-10-10 21:00:00 TS 25.8426 -58.9576 main 1070 1070 P_____________ AL151970 25.8426 -58.9576 TD 20 -1 17 80
1970267N09345 1970 120 NA NA NOT_NAMED 1970-10-11 00:00:00 TS 26.0000 -58.0000 20 hurdat_atl main 1154 1154 O_____________ hurdat_atl AL151970 26.0000 -58.0000 TD 20 -1 17 79
1970267N09345 1970 120 NA NA NOT_NAMED 1970-10-11 03:00:00 TS 26.1566 -57.1424 main 1233 1233 P_____________ AL151970 26.1566 -57.1424 TD 20 -1 16 79
1970267N09345 1970 120 NA NA NOT_NAMED 1970-10-11 06:00:00 TS 26.3000 -56.3000 20 hurdat_atl main 1300 1300 O_____________ hurdat_atl AL151970 26.3000 -56.3000 TD 20 -1 16 81
1970267N09345 1970 120 NA NA NOT_NAMED 1970-10-11 09:00:00 TS 26.4114 -55.4152 main 1376 1376 P_____________ AL151970 26.4114 -55.4152 TD 20 -1 16 83
1970267N09345 1970 120 NA NA NOT_NAMED 1970-10-11 12:00:00 TS 26.5000 -54.5000 20 hurdat_atl main 1454 O_____________ hurdat_atl AL151970 26.5000 -54.5000 TD 20 -1 16 84

About IBTrACS Database

This database is a web-friendly format of International Best Track Archive for Climate Stewardship (IBTrACS), a global best track data archive curated by NOAA dating back to 1842.

Updated: 2021-10-08